Hauptseite
METAR-TAF:

METAR-TAF

Flughäfen :

Flughafen Rennes

Rennes, Frankreich

Breite: 48-04N, Länge: 001-44W, Höhe: 37 m

Beobachtung

Neuester Wetterbericht von vor 24 Minuten, um 05:30 UTC
Wind 8 kt aus Nord/Nordost
Temperatur 1°C
Luftfeuchtigkeit 86%
Luftdruck 1015 hPa
Sichtweite 10 km oder mehr
keine Wolken unter 1500 m und keine Kumulonimbus oder Gewitterwolken

METAR: LFRN 190530Z AUTO 02008KT CAVOK 01/M01 Q1015 NOSIG

Zeit: 06:54 (05:54 UTC)

Prognose

Neuester Wetterbericht von vor 54 Minuten, um 05:00 UTC
Gültige Prognose vom 19 um 06 UTC bis 20 um 06 UTC
Wind 10 kt aus Nord/Nordost
Sichtweite 10 km oder mehr
keine Wolken unter 1500 m und keine Kumulonimbus oder Gewitterwolken
Zeitweise
vom 20 um 00 UTC bis 20 um 06 UTC
Durchbrochene Bewölkung in der Höhe von 1500 ft

TAF: LFRN 190500Z 1906/2006 03010KT CAVOK TEMPO 2000/2006 BKN015

Wetterbeobachtungen und Prognosen von mehr als 4000 Flughäfen (METAR und TAF Bericht).

Die verfügbaren Stationen werden durch gelbe und rote Markierungen auf der Karte dargestellt.

Führen Sie die Maus auf sie, um den Namen der Station zu sehen.

Darauf klicken, um die Beobachtung von Wetterbeobachtungen und Prognosen zu sehen.

Um die Karte zu ändern : klicken Sie auf den grünen Tasten mit einem schwarzen Kreuz Zum Vergrößern, auf den grünen Button mit einem Gedankenstrich zu verkleinern, oder auf die grünen Pfeile für benachbarte Karten.


METAR-TAF: